sensor_id;sensor_type;location;lat;lon;timestamp;P1;durP1;ratioP1;P2;durP2;ratioP2
65387;SDS011;51992;53.528;49.474;2022-07-21T00:00:41;8.23;;;1.80;;
65387;SDS011;51992;53.528;49.474;2022-07-21T00:03:07;2.17;;;1.58;;
65387;SDS011;51992;53.528;49.474;2022-07-21T00:05:32;2.17;;;1.55;;
65387;SDS011;51992;53.528;49.474;2022-07-21T00:08:00;5.18;;;1.63;;
65387;SDS011;51992;53.528;49.474;2022-07-21T00:10:25;4.95;;;1.30;;
65387;SDS011;51992;53.528;49.474;2022-07-21T00:12:52;4.03;;;1.20;;
65387;SDS011;51992;53.528;49.474;2022-07-21T00:15:21;1.75;;;1.15;;
65387;SDS011;51992;53.528;49.474;2022-07-21T00:17:47;3.47;;;1.20;;
65387;SDS011;51992;53.528;49.474;2022-07-21T00:20:14;3.45;;;1.67;;
65387;SDS011;51992;53.528;49.474;2022-07-21T00:22:40;5.80;;;1.40;;
65387;SDS011;51992;53.528;49.474;2022-07-21T00:25:06;3.75;;;1.33;;
65387;SDS011;51992;53.528;49.474;2022-07-21T00:27:32;2.35;;;1.00;;
65387;SDS011;51992;53.528;49.474;2022-07-21T00:29:58;1.83;;;1.27;;
65387;SDS011;51992;53.528;49.474;2022-07-21T00:32:24;3.35;;;1.25;;
65387;SDS011;51992;53.528;49.474;2022-07-21T00:34:50;1.40;;;1.30;;
65387;SDS011;51992;53.528;49.474;2022-07-21T00:37:16;4.53;;;1.40;;
65387;SDS011;51992;53.528;49.474;2022-07-21T00:39:42;3.22;;;1.77;;
65387;SDS011;51992;53.528;49.474;2022-07-21T00:42:07;1.92;;;1.23;;
65387;SDS011;51992;53.528;49.474;2022-07-21T00:44:33;3.95;;;1.55;;
65387;SDS011;51992;53.528;49.474;2022-07-21T00:46:59;3.88;;;1.40;;
65387;SDS011;51992;53.528;49.474;2022-07-21T00:49:25;4.50;;;1.58;;
65387;SDS011;51992;53.528;49.474;2022-07-21T00:51:51;5.57;;;1.50;;
65387;SDS011;51992;53.528;49.474;2022-07-21T00:54:18;2.72;;;1.33;;
65387;SDS011;51992;53.528;49.474;2022-07-21T00:56:45;5.75;;;1.30;;
65387;SDS011;51992;53.528;49.474;2022-07-21T00:59:11;5.72;;;1.70;;
65387;SDS011;51992;53.528;49.474;2022-07-21T01:01:37;5.05;;;1.42;;
65387;SDS011;51992;53.528;49.474;2022-07-21T01:04:02;3.13;;;1.30;;
65387;SDS011;51992;53.528;49.474;2022-07-21T01:06:28;5.57;;;1.30;;
65387;SDS011;51992;53.528;49.474;2022-07-21T01:08:54;2.05;;;1.13;;
65387;SDS011;51992;53.528;49.474;2022-07-21T01:11:22;5.40;;;1.58;;
65387;SDS011;51992;53.528;49.474;2022-07-21T01:13:49;4.78;;;1.65;;
65387;SDS011;51992;53.528;49.474;2022-07-21T01:16:15;2.45;;;1.58;;
65387;SDS011;51992;53.528;49.474;2022-07-21T01:18:40;5.20;;;1.80;;
65387;SDS011;51992;53.528;49.474;2022-07-21T01:21:17;4.93;;;1.50;;
65387;SDS011;51992;53.528;49.474;2022-07-21T01:23:52;6.28;;;1.85;;
65387;SDS011;51992;53.528;49.474;2022-07-21T01:26:18;1.90;;;1.60;;
65387;SDS011;51992;53.528;49.474;2022-07-21T01:28:43;4.50;;;1.98;;
65387;SDS011;51992;53.528;49.474;2022-07-21T01:31:09;4.50;;;1.88;;
65387;SDS011;51992;53.528;49.474;2022-07-21T01:33:35;3.53;;;3.22;;
65387;SDS011;51992;53.528;49.474;2022-07-21T01:36:01;15.15;;;6.47;;
65387;SDS011;51992;53.528;49.474;2022-07-21T01:38:27;9.52;;;3.20;;
65387;SDS011;51992;53.528;49.474;2022-07-21T01:41:11;6.82;;;2.40;;
65387;SDS011;51992;53.528;49.474;2022-07-21T01:43:56;6.95;;;1.88;;
65387;SDS011;51992;53.528;49.474;2022-07-21T01:46:22;2.80;;;2.00;;
65387;SDS011;51992;53.528;49.474;2022-07-21T01:48:47;7.32;;;3.92;;
65387;SDS011;51992;53.528;49.474;2022-07-21T01:51:13;11.68;;;5.85;;
65387;SDS011;51992;53.528;49.474;2022-07-21T01:53:39;15.65;;;6.00;;
65387;SDS011;51992;53.528;49.474;2022-07-21T01:56:05;8.98;;;4.75;;
65387;SDS011;51992;53.528;49.474;2022-07-21T01:58:31;4.63;;;2.47;;
65387;SDS011;51992;53.528;49.474;2022-07-21T02:00:58;10.52;;;5.00;;
65387;SDS011;51992;53.528;49.474;2022-07-21T02:03:23;7.45;;;2.33;;
65387;SDS011;51992;53.528;49.474;2022-07-21T02:05:49;12.90;;;2.05;;
65387;SDS011;51992;53.528;49.474;2022-07-21T02:08:15;3.45;;;1.75;;
65387;SDS011;51992;53.528;49.474;2022-07-21T02:10:41;3.92;;;1.60;;
65387;SDS011;51992;53.528;49.474;2022-07-21T02:13:07;6.55;;;1.73;;
65387;SDS011;51992;53.528;49.474;2022-07-21T02:15:33;4.47;;;1.80;;
65387;SDS011;51992;53.528;49.474;2022-07-21T02:17:59;7.13;;;3.55;;
65387;SDS011;51992;53.528;49.474;2022-07-21T02:20:25;6.22;;;2.50;;
65387;SDS011;51992;53.528;49.474;2022-07-21T02:22:51;9.50;;;3.55;;
65387;SDS011;51992;53.528;49.474;2022-07-21T02:25:17;5.00;;;3.25;;
65387;SDS011;51992;53.528;49.474;2022-07-21T02:27:43;8.43;;;2.65;;
65387;SDS011;51992;53.528;49.474;2022-07-21T02:30:09;3.97;;;2.22;;
65387;SDS011;51992;53.528;49.474;2022-07-21T02:32:35;5.82;;;2.45;;
65387;SDS011;51992;53.528;49.474;2022-07-21T02:35:01;7.78;;;2.92;;
65387;SDS011;51992;53.528;49.474;2022-07-21T02:37:27;9.48;;;2.65;;
65387;SDS011;51992;53.528;49.474;2022-07-21T02:39:53;7.07;;;2.85;;
65387;SDS011;51992;53.528;49.474;2022-07-21T02:42:19;3.78;;;2.03;;
65387;SDS011;51992;53.528;49.474;2022-07-21T02:44:45;6.47;;;2.42;;
65387;SDS011;51992;53.528;49.474;2022-07-21T02:47:10;4.95;;;2.10;;
65387;SDS011;51992;53.528;49.474;2022-07-21T02:49:37;7.88;;;2.40;;
65387;SDS011;51992;53.528;49.474;2022-07-21T02:52:03;10.60;;;2.50;;
65387;SDS011;51992;53.528;49.474;2022-07-21T02:54:28;12.55;;;2.75;;
65387;SDS011;51992;53.528;49.474;2022-07-21T02:56:54;5.65;;;2.05;;
65387;SDS011;51992;53.528;49.474;2022-07-21T02:59:20;6.45;;;2.20;;
65387;SDS011;51992;53.528;49.474;2022-07-21T03:01:46;4.97;;;2.17;;
65387;SDS011;51992;53.528;49.474;2022-07-21T03:04:12;5.05;;;2.08;;
65387;SDS011;51992;53.528;49.474;2022-07-21T03:06:38;6.40;;;1.90;;
65387;SDS011;51992;53.528;49.474;2022-07-21T03:09:05;11.45;;;2.92;;
65387;SDS011;51992;53.528;49.474;2022-07-21T03:11:30;6.85;;;2.30;;
65387;SDS011;51992;53.528;49.474;2022-07-21T03:13:56;5.22;;;1.80;;
65387;SDS011;51992;53.528;49.474;2022-07-21T03:16:22;10.35;;;3.17;;
65387;SDS011;51992;53.528;49.474;2022-07-21T03:18:48;22.63;;;10.00;;
65387;SDS011;51992;53.528;49.474;2022-07-21T03:21:13;19.52;;;9.85;;
65387;SDS011;51992;53.528;49.474;2022-07-21T03:23:39;15.75;;;5.22;;
65387;SDS011;51992;53.528;49.474;2022-07-21T03:26:05;12.05;;;3.80;;
65387;SDS011;51992;53.528;49.474;2022-07-21T03:28:31;4.68;;;1.95;;
65387;SDS011;51992;53.528;49.474;2022-07-21T03:30:56;3.90;;;2.17;;
65387;SDS011;51992;53.528;49.474;2022-07-21T03:33:22;7.65;;;2.13;;
65387;SDS011;51992;53.528;49.474;2022-07-21T03:35:49;4.18;;;2.03;;
65387;SDS011;51992;53.528;49.474;2022-07-21T03:38:14;7.22;;;2.10;;
65387;SDS011;51992;53.528;49.474;2022-07-21T03:40:40;8.70;;;2.30;;
65387;SDS011;51992;53.528;49.474;2022-07-21T03:43:06;10.43;;;1.75;;
65387;SDS011;51992;53.528;49.474;2022-07-21T03:45:32;4.18;;;1.45;;
65387;SDS011;51992;53.528;49.474;2022-07-21T03:47:59;12.23;;;3.10;;
65387;SDS011;51992;53.528;49.474;2022-07-21T03:50:25;6.53;;;2.35;;
65387;SDS011;51992;53.528;49.474;2022-07-21T03:52:51;9.68;;;2.65;;
65387;SDS011;51992;53.528;49.474;2022-07-21T03:55:17;5.63;;;1.63;;
65387;SDS011;51992;53.528;49.474;2022-07-21T04:00:11;14.50;;;2.78;;
65387;SDS011;51992;53.528;49.474;2022-07-21T04:02:38;15.02;;;3.13;;
65387;SDS011;51992;53.528;49.474;2022-07-21T04:05:03;7.47;;;2.33;;
65387;SDS011;51992;53.528;49.474;2022-07-21T04:07:29;5.93;;;1.70;;
65387;SDS011;51992;53.528;49.474;2022-07-21T04:09:55;6.47;;;1.63;;
65387;SDS011;51992;53.528;49.474;2022-07-21T04:12:24;5.55;;;1.45;;
65387;SDS011;51992;53.528;49.474;2022-07-21T04:14:50;6.25;;;3.05;;
65387;SDS011;51992;53.528;49.474;2022-07-21T04:17:16;5.40;;;4.90;;
65387;SDS011;51992;53.528;49.474;2022-07-21T04:19:42;8.18;;;4.40;;
65387;SDS011;51992;53.528;49.474;2022-07-21T04:22:08;8.23;;;2.88;;
65387;SDS011;51992;53.528;49.474;2022-07-21T04:24:34;9.98;;;2.17;;
65387;SDS011;51992;53.528;49.474;2022-07-21T04:27:00;8.80;;;2.10;;
65387;SDS011;51992;53.528;49.474;2022-07-21T04:29:26;9.10;;;1.73;;
65387;SDS011;51992;53.528;49.474;2022-07-21T04:31:53;4.22;;;1.60;;
65387;SDS011;51992;53.528;49.474;2022-07-21T04:34:19;16.27;;;9.15;;
65387;SDS011;51992;53.528;49.474;2022-07-21T04:36:45;28.85;;;21.77;;
65387;SDS011;51992;53.528;49.474;2022-07-21T04:39:10;20.70;;;8.88;;
65387;SDS011;51992;53.528;49.474;2022-07-21T04:41:36;8.52;;;4.50;;
65387;SDS011;51992;53.528;49.474;2022-07-21T04:44:02;5.72;;;2.45;;
65387;SDS011;51992;53.528;49.474;2022-07-21T04:46:28;7.22;;;1.73;;
65387;SDS011;51992;53.528;49.474;2022-07-21T04:48:53;7.88;;;2.40;;
65387;SDS011;51992;53.528;49.474;2022-07-21T04:51:19;2.03;;;1.50;;
65387;SDS011;51992;53.528;49.474;2022-07-21T04:53:45;4.70;;;1.50;;
65387;SDS011;51992;53.528;49.474;2022-07-21T04:56:10;2.95;;;1.52;;
65387;SDS011;51992;53.528;49.474;2022-07-21T04:58:36;5.35;;;1.52;;
65387;SDS011;51992;53.528;49.474;2022-07-21T05:01:02;4.25;;;1.67;;
65387;SDS011;51992;53.528;49.474;2022-07-21T05:03:28;8.48;;;2.20;;
65387;SDS011;51992;53.528;49.474;2022-07-21T05:05:53;2.15;;;1.67;;
65387;SDS011;51992;53.528;49.474;2022-07-21T05:08:19;4.65;;;2.20;;
65387;SDS011;51992;53.528;49.474;2022-07-21T05:10:45;6.10;;;1.80;;
65387;SDS011;51992;53.528;49.474;2022-07-21T05:13:10;2.88;;;1.55;;
65387;SDS011;51992;53.528;49.474;2022-07-21T05:15:36;3.35;;;1.63;;
65387;SDS011;51992;53.528;49.474;2022-07-21T05:18:02;7.07;;;1.88;;
65387;SDS011;51992;53.528;49.474;2022-07-21T05:20:28;11.05;;;2.15;;
65387;SDS011;51992;53.528;49.474;2022-07-21T05:22:53;9.82;;;1.98;;
65387;SDS011;51992;53.528;49.474;2022-07-21T05:25:19;4.40;;;1.50;;
65387;SDS011;51992;53.528;49.474;2022-07-21T05:27:45;7.38;;;1.95;;
65387;SDS011;51992;53.528;49.474;2022-07-21T05:30:10;6.85;;;1.58;;
65387;SDS011;51992;53.528;49.474;2022-07-21T05:32:36;7.55;;;1.80;;
65387;SDS011;51992;53.528;49.474;2022-07-21T05:35:02;6.00;;;1.98;;
65387;SDS011;51992;53.528;49.474;2022-07-21T05:39:59;3.80;;;1.50;;
65387;SDS011;51992;53.528;49.474;2022-07-21T05:42:26;2.55;;;1.50;;
65387;SDS011;51992;53.528;49.474;2022-07-21T05:44:51;7.13;;;1.70;;
65387;SDS011;51992;53.528;49.474;2022-07-21T05:47:17;5.93;;;1.70;;
65387;SDS011;51992;53.528;49.474;2022-07-21T05:49:43;6.20;;;1.88;;
65387;SDS011;51992;53.528;49.474;2022-07-21T05:52:08;6.88;;;2.00;;
65387;SDS011;51992;53.528;49.474;2022-07-21T05:54:34;4.40;;;1.20;;
65387;SDS011;51992;53.528;49.474;2022-07-21T05:57:00;3.67;;;1.20;;
65387;SDS011;51992;53.528;49.474;2022-07-21T05:59:27;2.65;;;1.50;;
65387;SDS011;51992;53.528;49.474;2022-07-21T06:01:53;3.88;;;1.20;;
65387;SDS011;51992;53.528;49.474;2022-07-21T06:04:19;5.88;;;1.42;;
65387;SDS011;51992;53.528;49.474;2022-07-21T06:06:45;8.95;;;1.92;;
65387;SDS011;51992;53.528;49.474;2022-07-21T06:09:10;5.63;;;1.60;;
65387;SDS011;51992;53.528;49.474;2022-07-21T06:11:36;2.63;;;1.10;;
65387;SDS011;51992;53.528;49.474;2022-07-21T06:14:02;2.25;;;1.42;;
65387;SDS011;51992;53.528;49.474;2022-07-21T06:16:28;2.72;;;1.50;;
65387;SDS011;51992;53.528;49.474;2022-07-21T06:18:53;6.35;;;1.42;;
65387;SDS011;51992;53.528;49.474;2022-07-21T06:21:19;5.68;;;1.42;;
65387;SDS011;51992;53.528;49.474;2022-07-21T06:23:45;2.80;;;1.48;;
65387;SDS011;51992;53.528;49.474;2022-07-21T06:26:11;6.22;;;1.55;;
65387;SDS011;51992;53.528;49.474;2022-07-21T06:28:37;6.53;;;1.92;;
65387;SDS011;51992;53.528;49.474;2022-07-21T06:31:03;2.85;;;1.40;;
65387;SDS011;51992;53.528;49.474;2022-07-21T06:33:28;2.97;;;1.33;;
65387;SDS011;51992;53.528;49.474;2022-07-21T06:35:55;3.50;;;1.40;;
65387;SDS011;51992;53.528;49.474;2022-07-21T06:38:20;2.28;;;1.05;;
65387;SDS011;51992;53.528;49.474;2022-07-21T06:40:46;5.20;;;1.50;;
65387;SDS011;51992;53.528;49.474;2022-07-21T06:43:12;2.22;;;1.40;;
65387;SDS011;51992;53.528;49.474;2022-07-21T06:45:38;15.13;;;1.80;;
65387;SDS011;51992;53.528;49.474;2022-07-21T06:48:04;2.58;;;1.10;;
65387;SDS011;51992;53.528;49.474;2022-07-21T06:50:31;2.45;;;1.30;;
65387;SDS011;51992;53.528;49.474;2022-07-21T06:52:56;3.80;;;1.67;;
65387;SDS011;51992;53.528;49.474;2022-07-21T06:55:22;1.05;;;1.05;;
65387;SDS011;51992;53.528;49.474;2022-07-21T06:57:48;5.20;;;1.50;;
65387;SDS011;51992;53.528;49.474;2022-07-21T07:00:14;4.05;;;1.30;;
65387;SDS011;51992;53.528;49.474;2022-07-21T07:02:39;5.40;;;1.38;;
65387;SDS011;51992;53.528;49.474;2022-07-21T07:05:05;7.38;;;1.55;;
65387;SDS011;51992;53.528;49.474;2022-07-21T07:07:32;5.88;;;1.45;;
65387;SDS011;51992;53.528;49.474;2022-07-21T07:09:58;5.35;;;1.63;;
65387;SDS011;51992;53.528;49.474;2022-07-21T07:12:25;4.10;;;1.40;;
65387;SDS011;51992;53.528;49.474;2022-07-21T07:14:50;2.35;;;0.95;;
65387;SDS011;51992;53.528;49.474;2022-07-21T07:17:17;5.65;;;1.60;;
65387;SDS011;51992;53.528;49.474;2022-07-21T07:19:46;6.63;;;1.80;;
65387;SDS011;51992;53.528;49.474;2022-07-21T07:22:12;10.95;;;2.15;;
65387;SDS011;51992;53.528;49.474;2022-07-21T07:24:38;5.93;;;1.70;;
65387;SDS011;51992;53.528;49.474;2022-07-21T07:27:03;4.05;;;1.40;;
65387;SDS011;51992;53.528;49.474;2022-07-21T07:29:29;5.00;;;1.83;;
65387;SDS011;51992;53.528;49.474;2022-07-21T07:31:57;10.55;;;1.60;;
65387;SDS011;51992;53.528;49.474;2022-07-21T07:34:22;6.28;;;1.58;;
65387;SDS011;51992;53.528;49.474;2022-07-21T07:36:49;9.98;;;1.80;;
65387;SDS011;51992;53.528;49.474;2022-07-21T07:39:15;17.52;;;2.22;;
65387;SDS011;51992;53.528;49.474;2022-07-21T07:41:43;8.75;;;1.67;;
65387;SDS011;51992;53.528;49.474;2022-07-21T07:44:09;6.75;;;1.60;;
65387;SDS011;51992;53.528;49.474;2022-07-21T07:46:35;5.78;;;1.35;;
65387;SDS011;51992;53.528;49.474;2022-07-21T07:49:01;2.75;;;1.30;;
65387;SDS011;51992;53.528;49.474;2022-07-21T07:51:26;4.93;;;2.00;;
65387;SDS011;51992;53.528;49.474;2022-07-21T07:53:52;9.52;;;1.90;;
65387;SDS011;51992;53.528;49.474;2022-07-21T07:56:18;13.23;;;1.88;;
65387;SDS011;51992;53.528;49.474;2022-07-21T07:58:44;4.88;;;1.80;;
65387;SDS011;51992;53.528;49.474;2022-07-21T08:01:09;8.30;;;1.65;;
65387;SDS011;51992;53.528;49.474;2022-07-21T08:03:35;8.20;;;1.77;;
65387;SDS011;51992;53.528;49.474;2022-07-21T08:06:01;5.70;;;2.28;;
65387;SDS011;51992;53.528;49.474;2022-07-21T08:08:32;11.30;;;2.57;;
65387;SDS011;51992;53.528;49.474;2022-07-21T08:10:58;5.40;;;1.73;;
65387;SDS011;51992;53.528;49.474;2022-07-21T08:13:24;8.88;;;1.83;;
65387;SDS011;51992;53.528;49.474;2022-07-21T08:15:50;6.18;;;2.85;;
65387;SDS011;51992;53.528;49.474;2022-07-21T08:18:16;12.85;;;2.38;;
65387;SDS011;51992;53.528;49.474;2022-07-21T08:20:42;3.78;;;1.80;;
65387;SDS011;51992;53.528;49.474;2022-07-21T08:23:08;5.05;;;1.65;;
65387;SDS011;51992;53.528;49.474;2022-07-21T08:25:34;8.38;;;1.48;;
65387;SDS011;51992;53.528;49.474;2022-07-21T08:28:00;5.32;;;1.95;;
65387;SDS011;51992;53.528;49.474;2022-07-21T08:30:26;11.82;;;2.35;;
65387;SDS011;51992;53.528;49.474;2022-07-21T08:32:52;6.07;;;1.60;;
65387;SDS011;51992;53.528;49.474;2022-07-21T08:35:17;6.28;;;2.03;;
65387;SDS011;51992;53.528;49.474;2022-07-21T08:37:52;5.30;;;2.13;;
65387;SDS011;51992;53.528;49.474;2022-07-21T08:40:18;13.80;;;2.35;;
65387;SDS011;51992;53.528;49.474;2022-07-21T08:42:47;8.85;;;2.60;;
65387;SDS011;51992;53.528;49.474;2022-07-21T08:45:13;12.20;;;2.45;;
65387;SDS011;51992;53.528;49.474;2022-07-21T08:47:38;7.05;;;1.60;;
65387;SDS011;51992;53.528;49.474;2022-07-21T08:50:05;4.55;;;1.67;;
65387;SDS011;51992;53.528;49.474;2022-07-21T08:52:31;11.90;;;3.00;;
65387;SDS011;51992;53.528;49.474;2022-07-21T08:54:57;9.57;;;2.35;;
65387;SDS011;51992;53.528;49.474;2022-07-21T08:57:22;9.98;;;1.85;;
65387;SDS011;51992;53.528;49.474;2022-07-21T08:59:48;5.05;;;1.55;;
65387;SDS011;51992;53.528;49.474;2022-07-21T09:02:35;5.35;;;1.55;;
65387;SDS011;51992;53.528;49.474;2022-07-21T09:05:00;7.22;;;1.60;;
65387;SDS011;51992;53.528;49.474;2022-07-21T09:07:26;4.05;;;0.80;;
65387;SDS011;51992;53.528;49.474;2022-07-21T09:09:59;5.40;;;1.33;;
65387;SDS011;51992;53.528;49.474;2022-07-21T09:12:25;4.28;;;1.67;;
65387;SDS011;51992;53.528;49.474;2022-07-21T09:14:51;2.85;;;1.30;;
65387;SDS011;51992;53.528;49.474;2022-07-21T09:17:18;4.30;;;1.40;;
65387;SDS011;51992;53.528;49.474;2022-07-21T09:19:45;1.20;;;1.13;;
65387;SDS011;51992;53.528;49.474;2022-07-21T09:22:13;6.35;;;1.50;;
65387;SDS011;51992;53.528;49.474;2022-07-21T09:24:40;4.95;;;1.88;;
65387;SDS011;51992;53.528;49.474;2022-07-21T09:27:07;9.45;;;2.47;;
65387;SDS011;51992;53.528;49.474;2022-07-21T09:29:38;6.22;;;1.90;;
65387;SDS011;51992;53.528;49.474;2022-07-21T09:34:42;2.85;;;1.33;;
65387;SDS011;51992;53.528;49.474;2022-07-21T09:37:07;24.42;;;3.45;;
65387;SDS011;51992;53.528;49.474;2022-07-21T09:39:40;8.57;;;2.03;;
65387;SDS011;51992;53.528;49.474;2022-07-21T09:42:17;14.85;;;2.10;;
65387;SDS011;51992;53.528;49.474;2022-07-21T09:44:44;13.32;;;2.10;;
65387;SDS011;51992;53.528;49.474;2022-07-21T09:47:14;6.50;;;1.95;;
65387;SDS011;51992;53.528;49.474;2022-07-21T09:49:40;16.50;;;2.80;;
65387;SDS011;51992;53.528;49.474;2022-07-21T09:54:52;26.33;;;2.70;;
65387;SDS011;51992;53.528;49.474;2022-07-21T09:57:18;7.70;;;1.40;;
65387;SDS011;51992;53.528;49.474;2022-07-21T09:59:44;2.70;;;1.23;;
65387;SDS011;51992;53.528;49.474;2022-07-21T10:02:11;13.65;;;2.80;;
65387;SDS011;51992;53.528;49.474;2022-07-21T10:04:38;33.08;;;3.85;;
65387;SDS011;51992;53.528;49.474;2022-07-21T10:07:04;11.05;;;1.80;;
65387;SDS011;51992;53.528;49.474;2022-07-21T10:09:30;5.25;;;1.52;;
65387;SDS011;51992;53.528;49.474;2022-07-21T10:11:55;7.53;;;1.63;;
65387;SDS011;51992;53.528;49.474;2022-07-21T10:14:21;9.30;;;1.67;;
65387;SDS011;51992;53.528;49.474;2022-07-21T10:16:47;9.63;;;2.00;;
65387;SDS011;51992;53.528;49.474;2022-07-21T10:19:14;12.95;;;1.98;;
65387;SDS011;51992;53.528;49.474;2022-07-21T10:21:46;5.63;;;1.95;;
65387;SDS011;51992;53.528;49.474;2022-07-21T10:24:15;7.53;;;1.40;;
65387;SDS011;51992;53.528;49.474;2022-07-21T10:30:00;4.65;;;1.50;;
65387;SDS011;51992;53.528;49.474;2022-07-21T10:32:22;6.43;;;1.80;;
65387;SDS011;51992;53.528;49.474;2022-07-21T10:34:48;7.43;;;1.50;;
65387;SDS011;51992;53.528;49.474;2022-07-21T10:39:58;6.78;;;1.52;;
65387;SDS011;51992;53.528;49.474;2022-07-21T10:42:24;13.63;;;2.80;;
65387;SDS011;51992;53.528;49.474;2022-07-21T10:44:50;11.23;;;2.35;;
65387;SDS011;51992;53.528;49.474;2022-07-21T10:47:19;16.77;;;3.00;;
65387;SDS011;51992;53.528;49.474;2022-07-21T10:49:58;12.38;;;2.42;;
65387;SDS011;51992;53.528;49.474;2022-07-21T10:57:36;24.55;;;3.40;;
65387;SDS011;51992;53.528;49.474;2022-07-21T11:00:19;12.25;;;2.53;;
65387;SDS011;51992;53.528;49.474;2022-07-21T11:02:46;4.30;;;1.85;;
65387;SDS011;51992;53.528;49.474;2022-07-21T11:05:12;22.35;;;3.22;;
65387;SDS011;51992;53.528;49.474;2022-07-21T11:10:22;8.13;;;1.90;;
65387;SDS011;51992;53.528;49.474;2022-07-21T11:12:56;8.23;;;1.90;;
65387;SDS011;51992;53.528;49.474;2022-07-21T11:16:50;10.95;;;1.70;;
65387;SDS011;51992;53.528;49.474;2022-07-21T11:18:18;3.75;;;1.40;;
65387;SDS011;51992;53.528;49.474;2022-07-21T11:20:59;12.98;;;2.40;;
65387;SDS011;51992;53.528;49.474;2022-07-21T11:23:38;9.35;;;2.45;;
65387;SDS011;51992;53.528;49.474;2022-07-21T11:26:04;15.00;;;3.90;;
65387;SDS011;51992;53.528;49.474;2022-07-21T11:28:30;6.47;;;2.30;;
65387;SDS011;51992;53.528;49.474;2022-07-21T11:31:06;5.38;;;2.17;;
65387;SDS011;51992;53.528;49.474;2022-07-21T11:33:32;17.23;;;2.75;;
65387;SDS011;51992;53.528;49.474;2022-07-21T11:35:58;4.60;;;1.85;;
65387;SDS011;51992;53.528;49.474;2022-07-21T11:38:24;4.65;;;1.67;;
65387;SDS011;51992;53.528;49.474;2022-07-21T11:40:50;11.80;;;2.20;;
65387;SDS011;51992;53.528;49.474;2022-07-21T11:43:15;12.63;;;2.22;;
65387;SDS011;51992;53.528;49.474;2022-07-21T11:45:50;7.45;;;2.00;;
65387;SDS011;51992;53.528;49.474;2022-07-21T11:48:29;8.40;;;2.15;;
65387;SDS011;51992;53.528;49.474;2022-07-21T11:51:01;3.90;;;1.40;;
65387;SDS011;51992;53.528;49.474;2022-07-21T11:53:28;9.25;;;1.80;;
65387;SDS011;51992;53.528;49.474;2022-07-21T11:55:54;3.53;;;1.50;;
65387;SDS011;51992;53.528;49.474;2022-07-21T11:58:20;10.15;;;2.05;;
65387;SDS011;51992;53.528;49.474;2022-07-21T12:00:46;4.40;;;1.27;;
65387;SDS011;51992;53.528;49.474;2022-07-21T12:03:12;7.90;;;2.05;;
65387;SDS011;51992;53.528;49.474;2022-07-21T12:05:39;7.55;;;1.83;;
65387;SDS011;51992;53.528;49.474;2022-07-21T12:08:05;6.50;;;1.80;;
65387;SDS011;51992;53.528;49.474;2022-07-21T12:10:31;5.45;;;1.80;;
65387;SDS011;51992;53.528;49.474;2022-07-21T12:12:58;4.60;;;1.58;;
65387;SDS011;51992;53.528;49.474;2022-07-21T12:15:25;7.15;;;2.08;;
65387;SDS011;51992;53.528;49.474;2022-07-21T12:17:54;4.07;;;1.30;;
65387;SDS011;51992;53.528;49.474;2022-07-21T12:20:29;9.23;;;2.97;;
65387;SDS011;51992;53.528;49.474;2022-07-21T12:22:56;6.57;;;1.67;;
65387;SDS011;51992;53.528;49.474;2022-07-21T12:25:33;5.30;;;1.60;;
65387;SDS011;51992;53.528;49.474;2022-07-21T12:27:59;1.73;;;1.05;;
65387;SDS011;51992;53.528;49.474;2022-07-21T12:33:01;8.07;;;2.00;;
65387;SDS011;51992;53.528;49.474;2022-07-21T12:35:27;10.18;;;1.95;;
65387;SDS011;51992;53.528;49.474;2022-07-21T12:37:54;9.95;;;1.80;;
65387;SDS011;51992;53.528;49.474;2022-07-21T12:40:20;6.00;;;2.15;;
65387;SDS011;51992;53.528;49.474;2022-07-21T12:42:47;21.30;;;3.10;;
65387;SDS011;51992;53.528;49.474;2022-07-21T12:47:39;6.45;;;2.13;;
65387;SDS011;51992;53.528;49.474;2022-07-21T12:50:05;6.00;;;1.63;;
65387;SDS011;51992;53.528;49.474;2022-07-21T12:52:31;5.15;;;1.42;;
65387;SDS011;51992;53.528;49.474;2022-07-21T12:54:58;2.45;;;1.25;;
65387;SDS011;51992;53.528;49.474;2022-07-21T12:57:27;10.70;;;1.90;;
65387;SDS011;51992;53.528;49.474;2022-07-21T12:59:54;2.30;;;1.15;;
65387;SDS011;51992;53.528;49.474;2022-07-21T13:02:19;4.72;;;2.13;;
65387;SDS011;51992;53.528;49.474;2022-07-21T13:04:45;14.35;;;2.17;;
65387;SDS011;51992;53.528;49.474;2022-07-21T13:07:12;10.15;;;1.90;;
65387;SDS011;51992;53.528;49.474;2022-07-21T13:09:37;4.63;;;1.15;;
65387;SDS011;51992;53.528;49.474;2022-07-21T13:12:03;5.15;;;1.50;;
65387;SDS011;51992;53.528;49.474;2022-07-21T13:14:30;5.07;;;0.90;;
65387;SDS011;51992;53.528;49.474;2022-07-21T13:16:55;6.78;;;1.63;;
65387;SDS011;51992;53.528;49.474;2022-07-21T13:19:22;7.82;;;1.30;;
65387;SDS011;51992;53.528;49.474;2022-07-21T13:21:49;4.70;;;2.17;;
65387;SDS011;51992;53.528;49.474;2022-07-21T13:24:14;11.65;;;1.50;;
65387;SDS011;51992;53.528;49.474;2022-07-21T13:26:40;8.18;;;1.55;;
65387;SDS011;51992;53.528;49.474;2022-07-21T13:29:06;7.93;;;1.70;;
65387;SDS011;51992;53.528;49.474;2022-07-21T13:31:33;6.25;;;1.80;;
65387;SDS011;51992;53.528;49.474;2022-07-21T13:34:05;9.90;;;1.83;;
65387;SDS011;51992;53.528;49.474;2022-07-21T13:36:34;5.47;;;1.92;;
65387;SDS011;51992;53.528;49.474;2022-07-21T13:38:59;6.90;;;2.03;;
65387;SDS011;51992;53.528;49.474;2022-07-21T13:41:25;4.57;;;1.75;;
65387;SDS011;51992;53.528;49.474;2022-07-21T13:43:51;10.40;;;1.85;;
65387;SDS011;51992;53.528;49.474;2022-07-21T13:46:17;8.52;;;1.67;;
65387;SDS011;51992;53.528;49.474;2022-07-21T13:48:43;6.15;;;1.88;;
65387;SDS011;51992;53.528;49.474;2022-07-21T13:51:14;1.70;;;1.60;;
65387;SDS011;51992;53.528;49.474;2022-07-21T13:53:40;4.43;;;1.30;;
65387;SDS011;51992;53.528;49.474;2022-07-21T13:56:06;8.25;;;1.70;;
65387;SDS011;51992;53.528;49.474;2022-07-21T13:58:32;6.40;;;1.50;;
65387;SDS011;51992;53.528;49.474;2022-07-21T14:00:58;8.27;;;1.63;;
65387;SDS011;51992;53.528;49.474;2022-07-21T14:03:24;4.10;;;1.48;;
65387;SDS011;51992;53.528;49.474;2022-07-21T14:05:50;8.43;;;1.50;;
65387;SDS011;51992;53.528;49.474;2022-07-21T14:08:15;4.88;;;1.40;;
65387;SDS011;51992;53.528;49.474;2022-07-21T14:10:41;13.43;;;2.20;;
65387;SDS011;51992;53.528;49.474;2022-07-21T14:13:07;6.85;;;1.45;;
65387;SDS011;51992;53.528;49.474;2022-07-21T14:15:32;9.65;;;1.83;;
65387;SDS011;51992;53.528;49.474;2022-07-21T14:17:58;4.30;;;1.60;;
65387;SDS011;51992;53.528;49.474;2022-07-21T14:20:24;9.90;;;1.95;;
65387;SDS011;51992;53.528;49.474;2022-07-21T14:22:50;6.18;;;1.70;;
65387;SDS011;51992;53.528;49.474;2022-07-21T14:25:16;7.63;;;2.03;;
65387;SDS011;51992;53.528;49.474;2022-07-21T14:27:50;6.55;;;1.75;;
65387;SDS011;51992;53.528;49.474;2022-07-21T14:30:17;5.55;;;2.03;;
65387;SDS011;51992;53.528;49.474;2022-07-21T14:32:43;4.65;;;1.60;;
65387;SDS011;51992;53.528;49.474;2022-07-21T14:35:09;3.60;;;1.73;;
65387;SDS011;51992;53.528;49.474;2022-07-21T14:37:35;7.55;;;1.80;;
65387;SDS011;51992;53.528;49.474;2022-07-21T14:40:02;7.38;;;1.65;;
65387;SDS011;51992;53.528;49.474;2022-07-21T14:42:28;6.65;;;1.60;;
65387;SDS011;51992;53.528;49.474;2022-07-21T14:44:54;3.63;;;1.40;;
65387;SDS011;51992;53.528;49.474;2022-07-21T14:47:20;2.42;;;1.50;;
65387;SDS011;51992;53.528;49.474;2022-07-21T14:49:47;2.78;;;1.67;;
65387;SDS011;51992;53.528;49.474;2022-07-21T14:52:13;3.65;;;1.55;;
65387;SDS011;51992;53.528;49.474;2022-07-21T14:54:39;5.35;;;2.15;;
65387;SDS011;51992;53.528;49.474;2022-07-21T14:57:04;8.88;;;2.53;;